createdAt,value
2018-10-17T00:01:12.461Z,100926.58
2018-10-17T00:03:42.385Z,100929.72
2018-10-17T00:06:12.333Z,100926.48
2018-10-17T00:08:42.358Z,100923.59
2018-10-17T00:11:12.359Z,100925.13
2018-10-17T00:13:42.334Z,100917.52
2018-10-17T00:16:12.216Z,100919.02
2018-10-17T00:18:42.189Z,100920.54
2018-10-17T00:21:12.195Z,100921.70
2018-10-17T00:23:42.159Z,100920.98
2018-10-17T00:26:12.101Z,100920.76
2018-10-17T00:28:42.065Z,100912.32
2018-10-17T00:31:12.033Z,100912.66
2018-10-17T00:33:41.938Z,100913.81
2018-10-17T00:36:11.845Z,100902.86
2018-10-17T00:38:41.807Z,100908.74
2018-10-17T00:41:11.866Z,100914.06
2018-10-17T00:43:41.783Z,100916.61
2018-10-17T00:46:11.797Z,100917.54
2018-10-17T00:48:41.776Z,100913.16
2018-10-17T00:51:11.760Z,100915.92
2018-10-17T00:53:41.730Z,100913.52
2018-10-17T00:56:11.656Z,100916.62
2018-10-17T00:58:45.895Z,100910.06
2018-10-17T01:01:16.279Z,100904.63
2018-10-17T01:03:46.171Z,100912.48
2018-10-17T01:06:16.093Z,100907.87
2018-10-17T01:08:46.002Z,100904.41
2018-10-17T01:11:15.982Z,100907.52
2018-10-17T01:13:45.914Z,100903.50
2018-10-17T01:16:15.860Z,100905.81
2018-10-17T01:18:45.820Z,100904.99
2018-10-17T01:21:15.777Z,100898.20
2018-10-17T01:23:45.809Z,100901.31
2018-10-17T01:26:15.755Z,100898.53
2018-10-17T01:28:45.664Z,100892.20
2018-10-17T01:31:15.701Z,100894.52
2018-10-17T01:33:45.519Z,100887.92
2018-10-17T01:36:15.473Z,100887.92
2018-10-17T01:38:45.422Z,100883.53
2018-10-17T01:41:15.497Z,100886.08
2018-10-17T01:43:45.307Z,100882.15
2018-10-17T01:46:15.269Z,100873.05
2018-10-17T01:48:45.185Z,100874.66
2018-10-17T01:51:15.054Z,100872.34
2018-10-17T01:53:45.016Z,100876.73
2018-10-17T01:56:14.970Z,100873.13
2018-10-17T01:58:44.910Z,100872.57
2018-10-17T02:01:14.998Z,100873.95
2018-10-17T02:03:44.800Z,100868.41
2018-10-17T02:06:14.730Z,100862.27
2018-10-17T02:08:44.642Z,100863.43
2018-10-17T02:11:14.630Z,100859.41
2018-10-17T02:13:44.539Z,100867.50
2018-10-17T02:16:14.399Z,100868.20
2018-10-17T02:18:45.296Z,100870.06
2018-10-17T02:21:15.185Z,100858.26
2018-10-17T02:23:45.128Z,100860.34
2018-10-17T02:26:15.064Z,100865.20
2018-10-17T02:28:44.990Z,100865.11
2018-10-17T02:31:14.928Z,100861.98
2018-10-17T02:33:44.854Z,100863.50
2018-10-17T02:36:14.787Z,100859.81
2018-10-17T02:38:44.643Z,100859.69
2018-10-17T02:41:14.656Z,100863.16
2018-10-17T02:43:44.518Z,100867.64
2018-10-17T02:46:14.453Z,100866.16
2018-10-17T02:48:44.392Z,100861.55
2018-10-17T02:51:14.335Z,100867.42
2018-10-17T02:53:44.266Z,100867.19
2018-10-17T02:56:14.219Z,100867.55
2018-10-17T02:58:44.180Z,100871.48
2018-10-17T03:01:14.159Z,100864.33
2018-10-17T03:03:44.032Z,100866.86
2018-10-17T03:06:13.932Z,100863.05
2018-10-17T03:08:43.875Z,100866.64
2018-10-17T03:11:13.883Z,100870.56
2018-10-17T03:13:43.776Z,100875.05
2018-10-17T03:16:13.713Z,100867.33
2018-10-17T03:18:43.707Z,100875.41
2018-10-17T03:21:13.673Z,100873.56
2018-10-17T03:23:43.617Z,100881.64
2018-10-17T03:26:14.078Z,100879.80
2018-10-17T03:28:44.005Z,100886.81
2018-10-17T03:31:14.067Z,100888.30
2018-10-17T03:33:43.941Z,100883.69
2018-10-17T03:36:13.899Z,100878.80
2018-10-17T03:38:44.369Z,100876.73
2018-10-17T03:41:14.349Z,100885.16
2018-10-17T03:43:44.240Z,100880.31
2018-10-17T03:46:14.180Z,100881.80
2018-10-17T03:48:44.135Z,100881.33
2018-10-17T03:51:14.051Z,100879.26
2018-10-17T03:53:44.006Z,100885.95
2018-10-17T03:56:13.938Z,100886.63
2018-10-17T03:58:43.844Z,100890.55
2018-10-17T04:01:13.816Z,100893.09
2018-10-17T04:03:43.759Z,100897.01
2018-10-17T04:06:13.740Z,100891.80
2018-10-17T04:08:43.621Z,100892.39
2018-10-17T04:11:13.590Z,100896.31
2018-10-17T04:13:43.475Z,100897.47
2018-10-17T04:16:13.419Z,100896.08
2018-10-17T04:18:43.308Z,100895.61
2018-10-17T04:21:13.214Z,100900.69
2018-10-17T04:23:43.214Z,100899.30
2018-10-17T04:26:13.144Z,100902.16
2018-10-17T04:28:43.189Z,100902.75
2018-10-17T04:31:13.191Z,100899.52
2018-10-17T04:33:43.096Z,100899.52
2018-10-17T04:36:13.101Z,100897.67
2018-10-17T04:38:42.980Z,100899.84
2018-10-17T04:41:12.966Z,100897.67
2018-10-17T04:43:42.869Z,100902.05
2018-10-17T04:46:12.820Z,100899.29
2018-10-17T04:48:42.762Z,100904.82
2018-10-17T04:51:12.717Z,100905.05
2018-10-17T04:53:42.642Z,100903.44
2018-10-17T04:56:12.593Z,100895.93
2018-10-17T04:58:42.579Z,100896.75
2018-10-17T05:01:12.525Z,100900.67
2018-10-17T05:03:42.465Z,100898.70
2018-10-17T05:06:12.347Z,100893.16
2018-10-17T05:08:42.307Z,100897.91
2018-10-17T05:11:12.347Z,100893.52
2018-10-17T05:13:42.178Z,100892.14
2018-10-17T05:16:12.131Z,100890.75
2018-10-17T05:18:42.067Z,100893.29
2018-10-17T05:21:12.020Z,100904.13
2018-10-17T05:23:41.982Z,100904.13
2018-10-17T05:26:11.986Z,100899.51
2018-10-17T05:28:41.966Z,100898.91
2018-10-17T05:31:11.942Z,100900.89
2018-10-17T05:33:41.830Z,100905.05
2018-10-17T05:36:11.762Z,100911.13
2018-10-17T05:38:41.675Z,100905.95
2018-10-17T05:41:11.724Z,100909.28
2018-10-17T05:43:41.624Z,100913.79
2018-10-17T05:46:11.503Z,100912.17
2018-10-17T05:48:41.432Z,100907.80
2018-10-17T05:51:11.375Z,100914.24
2018-10-17T05:53:41.292Z,100917.01
2018-10-17T05:56:11.114Z,100908.48
2018-10-17T05:58:41.090Z,100912.13
2018-10-17T06:01:11.032Z,100925.72
2018-10-17T06:03:40.953Z,100922.72
2018-10-17T06:06:10.897Z,100926.41
2018-10-17T06:08:40.807Z,100931.47
2018-10-17T06:11:10.821Z,100933.09
2018-10-17T06:13:40.715Z,100931.23
2018-10-17T06:16:10.663Z,100928.23
2018-10-17T06:18:40.615Z,100937.91
2018-10-17T06:21:10.515Z,100938.27
2018-10-17T06:23:40.442Z,100942.66
2018-10-17T06:26:10.395Z,100943.21
2018-10-17T06:28:40.331Z,100944.83
2018-10-17T06:31:10.284Z,100946.80
2018-10-17T06:33:40.202Z,100944.83
2018-10-17T06:36:10.216Z,100945.06
2018-10-17T06:38:40.093Z,100943.69
2018-10-17T06:41:10.140Z,100946.45
2018-10-17T06:43:40.157Z,100954.75
2018-10-17T06:46:09.996Z,100953.36
2018-10-17T06:48:39.917Z,100949.45
2018-10-17T06:51:09.914Z,100952.45
2018-10-17T06:53:39.920Z,100960.06
2018-10-17T06:56:09.870Z,100965.59
2018-10-17T06:58:40.025Z,100956.16
2018-10-17T07:01:10.041Z,100949.97
2018-10-17T07:03:39.932Z,100949.05
2018-10-17T07:06:09.906Z,100955.05
2018-10-17T07:08:39.914Z,100959.08
2018-10-17T07:11:10.536Z,100965.08
2018-10-17T07:13:41.051Z,100966.61
2018-10-17T07:16:11.376Z,100967.55
2018-10-17T07:18:41.534Z,100971.72
2018-10-17T07:21:11.449Z,100966.20
2018-10-17T07:23:41.418Z,100965.66
2018-10-17T07:26:11.377Z,100960.13
2018-10-17T07:28:41.334Z,100951.84
2018-10-17T07:31:11.301Z,100958.11
2018-10-17T07:33:41.320Z,100959.97
2018-10-17T07:36:11.314Z,100966.20
2018-10-17T07:38:41.148Z,100961.13
2018-10-17T07:41:11.099Z,100961.50
2018-10-17T07:43:41.016Z,100958.63
2018-10-17T07:46:10.938Z,100963.93
2018-10-17T07:48:40.895Z,100967.28
2018-10-17T07:51:10.890Z,100975.91
2018-10-17T07:53:40.780Z,100972.33
2018-10-17T07:56:10.732Z,100970.69
2018-10-17T07:58:40.628Z,100971.59
2018-10-17T08:01:10.601Z,100972.09
2018-10-17T08:03:40.506Z,100972.37
2018-10-17T08:06:10.572Z,100973.04
2018-10-17T08:08:40.509Z,100977.30
2018-10-17T08:11:10.496Z,100976.34
2018-10-17T08:13:40.450Z,100975.82
2018-10-17T08:16:11.033Z,100976.27
2018-10-17T08:18:41.038Z,100972.53
2018-10-17T08:21:11.059Z,100973.39
2018-10-17T08:23:41.138Z,100964.53
2018-10-17T08:26:11.120Z,100966.33
2018-10-17T08:28:41.059Z,100965.04
2018-10-17T08:31:11.050Z,100965.77
2018-10-17T08:33:40.990Z,100966.23
2018-10-17T08:36:11.089Z,100964.40
2018-10-17T08:38:40.967Z,100964.52
2018-10-17T08:41:11.002Z,100958.92
2018-10-17T08:43:40.847Z,100953.45
2018-10-17T08:46:10.959Z,100950.20
2018-10-17T08:48:40.932Z,100952.95
2018-10-17T08:51:11.130Z,100949.42
2018-10-17T08:53:41.110Z,100951.70
2018-10-17T08:56:11.105Z,100951.41
2018-10-17T08:58:41.079Z,100955.63
2018-10-17T09:01:20.392Z,100957.89
2018-10-17T09:04:00.688Z,100946.86
2018-10-17T09:06:31.261Z,100947.34
2018-10-17T09:09:10.698Z,100952.95
2018-10-17T09:11:47.317Z,100953.82
2018-10-17T09:14:19.177Z,100955.67
2018-10-17T09:17:00.868Z,100957.28
2018-10-17T09:19:31.572Z,100954.70
2018-10-17T09:22:01.797Z,100954.49
2018-10-17T09:24:32.667Z,100955.08
2018-10-17T09:27:05.380Z,100956.63
2018-10-17T09:29:35.327Z,100958.95
2018-10-17T09:32:11.085Z,100959.89
2018-10-17T09:34:41.725Z,100958.23
2018-10-17T09:37:11.720Z,100963.59
2018-10-17T09:39:41.658Z,100951.75
2018-10-17T09:42:13.875Z,100960.46
2018-10-17T09:44:48.649Z,100958.94
2018-10-17T09:47:28.944Z,100958.03
2018-10-17T09:50:02.314Z,100952.34
2018-10-17T09:52:35.100Z,100957.62
2018-10-17T09:55:10.290Z,100965.87
2018-10-17T09:57:40.466Z,100959.76
2018-10-17T10:00:17.082Z,100963.03
2018-10-17T10:02:48.167Z,100962.73
2018-10-17T10:05:19.079Z,100959.98
2018-10-17T10:07:48.930Z,100956.66
2018-10-17T10:10:19.313Z,100955.30
2018-10-17T10:12:49.305Z,100956.73
2018-10-17T10:15:19.226Z,100944.18
2018-10-17T10:17:49.182Z,100950.63
2018-10-17T10:20:19.119Z,100942.84
2018-10-17T10:22:49.132Z,100945.48
2018-10-17T10:25:19.835Z,100938.13
2018-10-17T10:27:49.665Z,100936.17
2018-10-17T10:30:19.672Z,100939.44
2018-10-17T10:32:49.520Z,100937.27
2018-10-17T10:35:19.512Z,100930.69
2018-10-17T10:37:49.453Z,100927.91
2018-10-17T10:40:19.374Z,100930.13
2018-10-17T10:42:49.358Z,100930.73
2018-10-17T10:45:19.382Z,100932.58
2018-10-17T10:47:49.280Z,100932.79
2018-10-17T10:50:19.384Z,100934.00
2018-10-17T10:52:49.689Z,100931.98
2018-10-17T10:55:19.673Z,100923.02
2018-10-17T10:57:49.631Z,100921.22
2018-10-17T11:00:19.764Z,100918.61
2018-10-17T11:02:50.061Z,100922.63
2018-10-17T11:05:20.215Z,100911.17
2018-10-17T11:07:50.164Z,100915.18
2018-10-17T11:10:20.129Z,100903.75
2018-10-17T11:12:50.188Z,100907.91
2018-10-17T11:15:20.157Z,100897.08
2018-10-17T11:17:50.101Z,100898.06
2018-10-17T11:20:20.079Z,100897.03
2018-10-17T11:22:58.605Z,100894.58
2018-10-17T11:25:31.688Z,100891.14
2018-10-17T11:28:02.201Z,100892.91
2018-10-17T11:33:01.012Z,100891.62
2018-10-17T11:35:30.915Z,100889.61
2018-10-17T11:38:14.339Z,100893.59
2018-10-17T11:40:50.999Z,100890.73
2018-10-17T11:43:21.257Z,100888.49
2018-10-17T11:45:51.058Z,100885.83
2018-10-17T11:48:21.823Z,100884.02
2018-10-17T11:50:52.032Z,100888.78
2018-10-17T11:53:21.960Z,100881.69
2018-10-17T11:55:51.941Z,100882.44
2018-10-17T11:58:21.920Z,100873.92
2018-10-17T12:00:51.838Z,100869.67
2018-10-17T12:03:21.804Z,100868.38
2018-10-17T12:05:52.092Z,100865.06
2018-10-17T12:08:21.991Z,100869.00
2018-10-17T12:10:51.946Z,100851.82
2018-10-17T12:13:21.922Z,100855.94
2018-10-17T12:15:51.850Z,100850.80
2018-10-17T12:18:21.766Z,100853.09
2018-10-17T12:20:51.809Z,100850.84
2018-10-17T12:23:21.762Z,100849.78
2018-10-17T12:25:51.724Z,100843.23
2018-10-17T12:28:21.792Z,100844.36
2018-10-17T12:30:51.837Z,100838.25
2018-10-17T12:33:21.792Z,100838.16
2018-10-17T12:35:51.695Z,100839.12
2018-10-17T12:38:21.656Z,100841.59
2018-10-17T12:40:51.744Z,100835.66
2018-10-17T12:43:22.166Z,100835.81
2018-10-17T12:45:52.126Z,100833.50
2018-10-17T12:48:22.126Z,100829.23
2018-10-17T12:50:52.112Z,100829.80
2018-10-17T12:53:22.106Z,100825.75
2018-10-17T12:55:52.023Z,100828.94
2018-10-17T12:58:21.974Z,100834.95
2018-10-17T13:00:52.017Z,100829.68
2018-10-17T13:03:21.989Z,100828.27
2018-10-17T13:05:51.912Z,100833.69
2018-10-17T13:08:21.877Z,100834.66
2018-10-17T13:10:52.590Z,100828.64
2018-10-17T13:13:22.558Z,100831.09
2018-10-17T13:15:52.477Z,100823.92
2018-10-17T13:18:22.337Z,100828.38
2018-10-17T13:20:52.302Z,100817.95
2018-10-17T13:23:22.305Z,100818.80
2018-10-17T13:25:52.299Z,100814.80
2018-10-17T13:28:22.227Z,100813.61
2018-10-17T13:30:52.181Z,100814.47
2018-10-17T13:33:22.071Z,100813.28
2018-10-17T13:35:52.076Z,100816.39
2018-10-17T13:38:22.047Z,100810.63
2018-10-17T13:40:51.983Z,100810.92
2018-10-17T13:43:21.912Z,100812.38
2018-10-17T13:45:51.933Z,100809.03
2018-10-17T13:48:21.931Z,100811.16
2018-10-17T13:50:51.839Z,100815.05
2018-10-17T13:53:21.839Z,100811.10
2018-10-17T13:55:51.808Z,100813.36
2018-10-17T13:58:21.836Z,100809.79
2018-10-17T14:00:51.724Z,100810.63
2018-10-17T14:03:21.733Z,100812.86
2018-10-17T14:05:51.590Z,100808.84
2018-10-17T14:08:21.543Z,100807.13
2018-10-17T14:10:51.496Z,100808.16
2018-10-17T14:13:22.033Z,100811.19
2018-10-17T14:15:51.860Z,100805.80
2018-10-17T14:18:21.892Z,100808.18
2018-10-17T14:20:51.872Z,100801.77
2018-10-17T14:23:21.759Z,100798.51
2018-10-17T14:25:51.727Z,100798.51
2018-10-17T14:28:21.651Z,100799.73
2018-10-17T14:30:51.583Z,100798.95
2018-10-17T14:33:21.542Z,100801.39
2018-10-17T14:35:51.517Z,100791.16
2018-10-17T14:38:21.487Z,100783.30
2018-10-17T14:40:51.660Z,100786.92
2018-10-17T14:43:21.626Z,100790.34
2018-10-17T14:45:51.646Z,100789.73
2018-10-17T14:48:21.769Z,100790.73
2018-10-17T14:50:51.774Z,100790.55
2018-10-17T14:53:21.764Z,100795.41
2018-10-17T14:55:51.774Z,100794.40
2018-10-17T14:58:21.673Z,100796.65
2018-10-17T15:00:51.696Z,100791.86
2018-10-17T15:03:22.304Z,100796.92
2018-10-17T15:05:52.228Z,100793.34
2018-10-17T15:08:22.197Z,100794.81
2018-10-17T15:10:52.327Z,100796.49
2018-10-17T15:13:22.074Z,100805.61
2018-10-17T15:15:52.087Z,100803.89
2018-10-17T15:18:22.027Z,100802.34
2018-10-17T15:20:52.020Z,100812.28
2018-10-17T15:23:22.010Z,100804.73
2018-10-17T15:25:51.976Z,100811.84
2018-10-17T15:28:21.898Z,100816.37
2018-10-17T15:30:51.877Z,100811.64
2018-10-17T15:33:21.815Z,100809.06
2018-10-17T15:35:51.774Z,100816.97
2018-10-17T15:38:21.738Z,100821.47
2018-10-17T15:40:51.795Z,100813.08
2018-10-17T15:43:21.968Z,100821.16
2018-10-17T15:45:51.866Z,100818.20
2018-10-17T15:48:21.868Z,100813.43
2018-10-17T15:50:51.845Z,100813.66
2018-10-17T15:53:21.773Z,100822.73
2018-10-17T15:55:51.753Z,100821.95
2018-10-17T15:58:21.755Z,100821.97
2018-10-17T16:00:51.754Z,100817.97
2018-10-17T16:03:21.691Z,100822.02
2018-10-17T16:05:51.690Z,100821.78
2018-10-17T16:08:21.661Z,100819.80
2018-10-17T16:10:52.419Z,100826.21
2018-10-17T16:13:22.394Z,100825.38
2018-10-17T16:15:52.369Z,100824.58
2018-10-17T16:18:23.866Z,100827.97
2018-10-17T16:20:53.990Z,100834.34
2018-10-17T16:23:24.908Z,100842.52
2018-10-17T16:25:58.526Z,100838.45
2018-10-17T16:28:32.615Z,100841.61
2018-10-17T16:31:03.741Z,100842.55
2018-10-17T16:33:33.860Z,100847.72
2018-10-17T16:36:03.916Z,100846.63
2018-10-17T16:38:33.887Z,100849.77
2018-10-17T16:41:03.885Z,100855.66
2018-10-17T16:43:33.830Z,100853.19
2018-10-17T16:46:03.819Z,100866.30
2018-10-17T16:48:33.949Z,100869.38
2018-10-17T16:51:03.914Z,100874.29
2018-10-17T16:53:33.931Z,100877.39
2018-10-17T16:56:03.904Z,100868.10
2018-10-17T16:58:33.980Z,100879.75
2018-10-17T17:01:03.968Z,100876.41
2018-10-17T17:03:33.999Z,100889.08
2018-10-17T17:06:03.950Z,100882.56
2018-10-17T17:08:33.968Z,100883.05
2018-10-17T17:11:03.961Z,100892.68
2018-10-17T17:13:34.000Z,100896.14
2018-10-17T17:16:04.008Z,100898.00
2018-10-17T17:18:34.283Z,100897.81
2018-10-17T17:21:04.243Z,100905.66
2018-10-17T17:23:34.239Z,100902.34
2018-10-17T17:26:04.152Z,100896.02
2018-10-17T17:28:34.132Z,100905.22
2018-10-17T17:31:04.156Z,100902.72
2018-10-17T17:33:34.182Z,100909.73
2018-10-17T17:36:04.138Z,100910.22
2018-10-17T17:38:34.130Z,100909.86
2018-10-17T17:41:04.147Z,100908.95
2018-10-17T17:43:34.589Z,100909.98
2018-10-17T17:46:05.422Z,100909.39
2018-10-17T17:48:35.368Z,100911.48
2018-10-17T17:51:05.397Z,100918.90
2018-10-17T17:53:35.410Z,100924.72
2018-10-17T17:56:05.562Z,100926.99
2018-10-17T17:58:35.722Z,100925.47
2018-10-17T18:01:05.616Z,100928.91
2018-10-17T18:03:35.625Z,100934.55
2018-10-17T18:06:05.629Z,100933.02
2018-10-17T18:08:35.606Z,100935.28
2018-10-17T18:11:21.947Z,100936.18
2018-10-17T18:13:52.641Z,100932.88
2018-10-17T18:16:22.678Z,100935.73
2018-10-17T18:18:52.648Z,100936.38
2018-10-17T18:21:22.686Z,100934.67
2018-10-17T18:23:52.650Z,100943.53
2018-10-17T18:26:22.733Z,100944.03
2018-10-17T18:28:52.706Z,100944.32
2018-10-17T18:31:22.569Z,100952.00
2018-10-17T18:33:52.536Z,100953.30
2018-10-17T18:36:22.445Z,100955.80
2018-10-17T18:38:52.340Z,100959.05
2018-10-17T18:41:22.343Z,100958.39
2018-10-17T18:43:52.192Z,100964.45
2018-10-17T18:46:22.114Z,100964.39
2018-10-17T18:48:52.021Z,100967.06
2018-10-17T18:51:21.975Z,100971.96
2018-10-17T18:53:51.900Z,100978.47
2018-10-17T18:56:21.871Z,100973.41
2018-10-17T18:58:51.907Z,100992.42
2018-10-17T19:01:21.965Z,100977.28
2018-10-17T19:03:51.899Z,100979.19
2018-10-17T19:06:21.842Z,100977.58
2018-10-17T19:08:51.912Z,100981.91
2018-10-17T19:11:22.013Z,100978.67
2018-10-17T19:13:51.900Z,100988.30
2018-10-17T19:16:21.814Z,100989.84
2018-10-17T19:18:51.768Z,100989.17
2018-10-17T19:21:21.725Z,100989.85
2018-10-17T19:23:51.609Z,100991.95
2018-10-17T19:26:21.674Z,100995.00
2018-10-17T19:28:51.657Z,101005.07
2018-10-17T19:31:21.517Z,101000.00
2018-10-17T19:33:51.493Z,100997.34
2018-10-17T19:36:21.465Z,101006.05
2018-10-17T19:38:51.511Z,101007.55
2018-10-17T19:41:21.497Z,101019.83
2018-10-17T19:43:51.495Z,101011.05
2018-10-17T19:46:21.484Z,101011.98
2018-10-17T19:48:51.369Z,101010.37
2018-10-17T19:51:21.270Z,101015.70
2018-10-17T19:53:51.149Z,101008.53
2018-10-17T19:56:21.065Z,101012.47
2018-10-17T19:58:51.099Z,101017.57
2018-10-17T20:01:21.199Z,101012.73
2018-10-17T20:03:51.095Z,101017.45
2018-10-17T20:06:20.979Z,101023.38
2018-10-17T20:08:51.007Z,101017.38
2018-10-17T20:11:20.958Z,101017.16
2018-10-17T20:13:50.894Z,101024.80
2018-10-17T20:16:20.782Z,101016.81
2018-10-17T20:18:50.665Z,101025.52
2018-10-17T20:21:20.595Z,101022.28
2018-10-17T20:23:50.474Z,101030.16
2018-10-17T20:26:20.886Z,101033.05
2018-10-17T20:28:50.867Z,101027.87
2018-10-17T20:31:20.775Z,101033.19
2018-10-17T20:33:50.724Z,101034.92
2018-10-17T20:36:20.585Z,101035.26
2018-10-17T20:38:50.591Z,101033.19
2018-10-17T20:41:20.602Z,101035.73
2018-10-17T20:43:50.567Z,101040.27
2018-10-17T20:46:20.539Z,101034.27
2018-10-17T20:48:50.530Z,101044.55
2018-10-17T20:51:20.500Z,101042.47
2018-10-17T20:53:50.493Z,101038.45
2018-10-17T20:56:20.549Z,101034.39
2018-10-17T20:58:50.466Z,101042.04
2018-10-17T21:01:20.422Z,101044.13
2018-10-17T21:03:50.396Z,101044.27
2018-10-17T21:06:20.383Z,101047.98
2018-10-17T21:08:50.533Z,101050.86
2018-10-17T21:11:20.553Z,101052.95
2018-10-17T21:13:50.459Z,101051.11
2018-10-17T21:16:20.395Z,101056.20
2018-10-17T21:18:50.405Z,101058.52
2018-10-17T21:21:20.376Z,101053.66
2018-10-17T21:23:50.266Z,101063.15
2018-10-17T21:26:20.162Z,101056.91
2018-10-17T21:28:50.057Z,101055.06
2018-10-17T21:31:19.970Z,101055.40
2018-10-17T21:33:49.994Z,101056.92
2018-10-17T21:36:20.149Z,101057.85
2018-10-17T21:38:50.077Z,101057.13
2018-10-17T21:41:19.981Z,101056.67
2018-10-17T21:43:49.922Z,101050.41
2018-10-17T21:46:19.953Z,101054.11
2018-10-17T21:48:49.945Z,101046.48
2018-10-17T21:51:19.896Z,101051.01
2018-10-17T21:53:49.911Z,101052.50
2018-10-17T21:56:19.868Z,101047.64
2018-10-17T21:58:49.787Z,101053.66
2018-10-17T22:01:19.790Z,101053.20
2018-10-17T22:03:49.764Z,101056.11
2018-10-17T22:06:19.668Z,101050.07
2018-10-17T22:08:49.615Z,101049.05
2018-10-17T22:11:19.565Z,101051.36
2018-10-17T22:13:49.533Z,101049.28
2018-10-17T22:16:19.516Z,101049.38
2018-10-17T22:18:49.550Z,101052.28
2018-10-17T22:21:19.454Z,101047.07
2018-10-17T22:23:49.409Z,101049.15
2018-10-17T22:26:19.470Z,101052.28
2018-10-17T22:28:49.349Z,101052.16
2018-10-17T22:31:19.306Z,101055.52
2018-10-17T22:33:49.272Z,101055.28
2018-10-17T22:36:19.503Z,101051.81
2018-10-17T22:38:49.487Z,101057.46
2018-10-17T22:41:19.390Z,101059.17
2018-10-17T22:43:49.339Z,101064.25
2018-10-17T22:46:19.298Z,101066.80
2018-10-17T22:48:49.289Z,101064.95
2018-10-17T22:51:19.241Z,101067.25
2018-10-17T22:53:49.260Z,101074.18
2018-10-17T22:56:19.254Z,101070.72
2018-10-17T22:58:49.150Z,101072.23
2018-10-17T23:01:19.084Z,101079.25
2018-10-17T23:03:48.975Z,101074.39
2018-10-17T23:06:18.951Z,101077.30
2018-10-17T23:08:48.884Z,101083.84
2018-10-17T23:11:18.848Z,101083.61
2018-10-17T23:13:48.782Z,101082.45
2018-10-17T23:16:18.712Z,101085.67
2018-10-17T23:18:48.704Z,101082.44
2018-10-17T23:21:18.613Z,101085.89
2018-10-17T23:23:48.534Z,101082.19
2018-10-17T23:26:18.477Z,101083.43
2018-10-17T23:28:48.371Z,101086.32
2018-10-17T23:31:18.343Z,101085.85
2018-10-17T23:33:48.320Z,101084.33
2018-10-17T23:36:18.257Z,101081.15
2018-10-17T23:38:48.116Z,101088.42
2018-10-17T23:41:18.009Z,101090.81
2018-10-17T23:43:47.949Z,101087.34
2018-10-17T23:46:17.906Z,101086.64
2018-10-17T23:48:47.949Z,101089.77
2018-10-17T23:51:17.893Z,101089.38
2018-10-17T23:53:47.848Z,101098.59
2018-10-17T23:56:17.824Z,101091.80
2018-10-17T23:58:47.753Z,101090.73
